Observation data for Memphis on 12/08/2018      Previous  Date       Current Mesonet Observations  Soil Data  Daily Summary Page  Observations in Plain Language
KMES 080600Z 01009KT 00/01 A3035 RMK A01 T00-00-13  RH  092%=      5-min Rain = 0
KMES 080605Z 01007KT 00/01 A3035 RMK A01 T00-00-13  RH  092%=      5-min Rain = 0
KMES 080610Z 01006KT 00/01 A3035 RMK A01 T00-00-13  RH  092%=      5-min Rain = 0
KMES 080615Z 01007KT 00/01 A3035 RMK A01 T00-00-12  RH  093%=      5-min Rain = 0
KMES 080620Z 01008KT M00/M01 A3034 RMK A01 T10011012  RH  093%=      5-min Rain = 0
KMES 080625Z 01008KT M00/M01 A3034 RMK A01 T10011011  RH  094%=      5-min Rain = 0
KMES 080630Z 01008KT M00/M01 A3034 RMK A01 T10021011  RH  094%=      5-min Rain = 0
KMES 080635Z 02007KT M00/M01 A3034 RMK A01 T10021011  RH  095%=      5-min Rain = 0
KMES 080640Z 02007KT M00/M01 A3034 RMK A01 T10021010  RH  095%=      5-min Rain = 0
KMES 080645Z 01007KT M00/M01 A3034 RMK A01 T10021010  RH  095%=      5-min Rain = 0
KMES 080650Z 01007KT M00/M01 A3033 RMK A01 T10031010  RH  096%=      5-min Rain = 0
KMES 080655Z 01009KT M00/M01 A3033 RMK A01 T10031010  RH  096%=      5-min Rain = 0
KMES 080700Z 00009KT M00/M01 A3033 RMK A01 T10041010  RH  096%=      5-min Rain = 0
KMES 080705Z 01009KT M00/M01 A3033 RMK A01 T10041011  RH  096%=      5-min Rain = 0
KMES 080710Z 01008KT M00/M01 A3033 RMK A01 T10041011  RH  096%=      5-min Rain = 0
KMES 080715Z 01008G13KT M01/M01 A3032 RMK A01 T10051011  RH  096%=      5-min Rain = 0
KMES 080720Z 01011KT M01/M01 A3032 RMK A01 T10061013  RH  096%=      5-min Rain = 0
KMES 080725Z 02009KT M01/M01 A3032 RMK A01 T10071014  RH  096%=      5-min Rain = 0
KMES 080730Z 02009KT M01/M01 A3033 RMK A01 T10061014  RH  095%=      5-min Rain = 0
KMES 080735Z 02008KT M01/M02 A3033 RMK A01 T10061015  RH  094%=      5-min Rain = 0
KMES 080740Z 01007KT M01/M02 A3033 RMK A01 T10051015  RH  093%=      5-min Rain = 0
KMES 080745Z 01009KT M00/M02 A3033 RMK A01 T10041016  RH  092%=      5-min Rain = 0
KMES 080750Z 01010KT M00/M02 A3033 RMK A01 T10041018  RH  091%=      5-min Rain = 0
KMES 080755Z 00009KT M00/M02 A3033 RMK A01 T10031020  RH  089%=      5-min Rain = 0
KMES 080800Z 00008KT M00/M02 A3033 RMK A01 T10031021  RH  088%=      5-min Rain = 0
KMES 080805Z 00010KT M00/M02 A3033 RMK A01 T10031023  RH  087%=      5-min Rain = 0
KMES 080810Z 00009KT M00/M02 A3033 RMK A01 T10031024  RH  086%=      5-min Rain = 0
KMES 080815Z 01011KT M00/M03 A3033 RMK A01 T10031026  RH  085%=      5-min Rain = 0
KMES 080820Z 00011KT M00/M03 A3033 RMK A01 T10031026  RH  085%=      5-min Rain = 0
KMES 080825Z 01009KT M00/M03 A3033 RMK A01 T10031026  RH  085%=      5-min Rain = 0
KMES 080830Z 01009KT M00/M03 A3033 RMK A01 T10031027  RH  085%=      5-min Rain = 0
KMES 080835Z 01010KT M00/M03 A3033 RMK A01 T10021028  RH  083%=      5-min Rain = 0
KMES 080840Z 00010G15KT M00/M03 A3032 RMK A01 T10021029  RH  083%=      5-min Rain = 0
KMES 080845Z 01010G15KT M00/M03 A3032 RMK A01 T10021028  RH  083%=      5-min Rain = 0
KMES 080850Z 01010KT M00/M03 A3032 RMK A01 T10021029  RH  083%=      5-min Rain = 0
KMES 080855Z 01010KT M00/M03 A3032 RMK A01 T10021030  RH  082%=      5-min Rain = 0
KMES 080900Z 02009G14KT M00/M03 A3031 RMK A01 T10011030  RH  081%=      5-min Rain = 0
KMES 080905Z 02008KT M00/M03 A3031 RMK A01 T10011030  RH  081%=      5-min Rain = 0
KMES 080910Z 01008KT M00/M03 A3032 RMK A01 T10011031  RH  081%=      5-min Rain = 0
KMES 080915Z 01007KT M00/M03 A3031 RMK A01 T10011031  RH  080%=      5-min Rain = 0
KMES 080920Z 02007KT M00/M03 A3031 RMK A01 T10011032  RH  080%=      5-min Rain = 0
KMES 080925Z 01008KT M00/M03 A3031 RMK A01 T10011032  RH  080%=      5-min Rain = 0
KMES 080930Z 02009KT M00/M03 A3031 RMK A01 T10011033  RH  079%=      5-min Rain = 0
KMES 080935Z 01009KT M00/M03 A3031 RMK A01 T10011032  RH  080%=      5-min Rain = 0
KMES 080940Z 01009KT M00/M03 A3031 RMK A01 T10011031  RH  080%=      5-min Rain = 0
KMES 080945Z 02009KT M00/M03 A3031 RMK A01 T10011031  RH  080%=      5-min Rain = 0
KMES 080950Z 01009KT M00/M03 A3031 RMK A01 T10011032  RH  080%=      5-min Rain = 0
KMES 080955Z 01009KT M00/M03 A3031 RMK A01 T10021032  RH  080%=      5-min Rain = 0
KMES 081000Z 01009KT M00/M03 A303 RMK A01 T10021033  RH  080%=      5-min Rain = 0
KMES 081005Z 01008KT M00/M03 A303 RMK A01 T10021033  RH  080%=      5-min Rain = 0
KMES 081010Z 01007KT M00/M03 A303 RMK A01 T10031032  RH  081%=      5-min Rain = 0
KMES 081015Z 00008KT M00/M03 A303 RMK A01 T10031032  RH  082%=      5-min Rain = 0
KMES 081020Z 00008KT M00/M03 A303 RMK A01 T10041032  RH  082%=      5-min Rain = 0
KMES 081025Z 00007KT M00/M03 A303 RMK A01 T10041030  RH  083%=      5-min Rain = 0
KMES 081030Z 00008KT M00/M03 A303 RMK A01 T10041028  RH  084%=      5-min Rain = 0
KMES 081035Z 35007KT M01/M03 A303 RMK A01 T10051028  RH  085%=      5-min Rain = 0
KMES 081040Z 36008KT M01/M03 A303 RMK A01 T10061027  RH  086%=      5-min Rain = 0
KMES 081045Z 36007KT M01/M03 A303 RMK A01 T10061026  RH  087%=      5-min Rain = 0
KMES 081050Z 36007KT M01/M03 A303 RMK A01 T10071025  RH  088%=      5-min Rain = 0
KMES 081055Z 36008KT M01/M03 A303 RMK A01 T10071025  RH  088%=      5-min Rain = 0
KMES 081100Z 35008KT M01/M03 A303 RMK A01 T10081025  RH  088%=      5-min Rain = 0
KMES 081105Z 36008KT M01/M03 A303 RMK A01 T10081025  RH  089%=      5-min Rain = 0
KMES 081110Z 35007KT M01/M03 A303 RMK A01 T10081025  RH  089%=      5-min Rain = 0
KMES 081115Z 36007KT M01/M02 A303 RMK A01 T10091024  RH  090%=      5-min Rain = 0
KMES 081120Z 00005KT M01/M02 A303 RMK A01 T10091024  RH  090%=      5-min Rain = 0
KMES 081125Z 36006KT M01/M02 A303 RMK A01 T10091024  RH  090%=      5-min Rain = 0
KMES 081130Z 35005KT M01/M02 A303 RMK A01 T10081024  RH  090%=      5-min Rain = 0
KMES 081135Z 35006KT M01/M02 A303 RMK A01 T10081023  RH  090%=      5-min Rain = 0
KMES 081140Z 35006KT M01/M02 A303 RMK A01 T10071023  RH  090%=      5-min Rain = 0
KMES 081145Z 35006KT M01/M02 A3031 RMK A01 T10071023  RH  089%=      5-min Rain = 0
KMES 081150Z 35007KT M01/M03 A3031 RMK A01 T10071025  RH  088%=      5-min Rain = 0
KMES 081155Z 35008KT M01/M03 A3031 RMK A01 T10061026  RH  087%=      5-min Rain = 0
KMES 081200Z 36007KT M01/M03 A3031 RMK A01 T10061026  RH  087%=      5-min Rain = 0
KMES 081205Z 00008KT M01/M03 A3031 RMK A01 T10051027  RH  086%=      5-min Rain = 0
KMES 081210Z 00007KT M00/M03 A3031 RMK A01 T10041028  RH  085%=      5-min Rain = 0
KMES 081215Z 00008KT M00/M03 A3031 RMK A01 T10041029  RH  084%=      5-min Rain = 0
KMES 081220Z 01006KT M00/M03 A3031 RMK A01 T10031029  RH  084%=      5-min Rain = 0
KMES 081225Z 01007KT M00/M03 A3031 RMK A01 T10031029  RH  083%=      5-min Rain = 0
KMES 081230Z 01007KT M00/M03 A3031 RMK A01 T10031029  RH  083%=      5-min Rain = 0
KMES 081235Z 00007KT M00/M03 A3031 RMK A01 T10021031  RH  082%=      5-min Rain = 0
KMES 081240Z 00008KT M00/M03 A3031 RMK A01 T10031031  RH  082%=      5-min Rain = 0
KMES 081245Z 00008KT M00/M03 A3031 RMK A01 T10021032  RH  081%=      5-min Rain = 0
KMES 081250Z 36007KT M00/M03 A3031 RMK A01 T10021032  RH  081%=      5-min Rain = 0
KMES 081255Z 36007KT M00/M03 A3031 RMK A01 T10021032  RH  081%=      5-min Rain = 0
KMES 081300Z 00008KT M00/M03 A3031 RMK A01 T10021033  RH  080%=      5-min Rain = 0
KMES 081305Z 00008KT M00/M04 A3031 RMK A01 T10011035  RH  078%=      5-min Rain = 0
KMES 081310Z 00009KT M00/M04 A3031 RMK A01 T10011038  RH  077%=      5-min Rain = 0
KMES 081315Z 00007G12KT M00/M04 A3031 RMK A01 T10011039  RH  076%=      5-min Rain = 0
KMES 081320Z 01008KT 00/04 A3031 RMK A01 T00-00-39  RH  076%=      5-min Rain = 0
KMES 081325Z 02007KT 00/04 A3032 RMK A01 T00-00-40  RH  075%=      5-min Rain = 0
KMES 081330Z 01007KT 00/04 A3032 RMK A01 T00-00-40  RH  075%=      5-min Rain = 0
KMES 081335Z 01006KT 00/04 A3032 RMK A01 T00-00-42  RH  074%=      5-min Rain = 0
KMES 081340Z 01007KT 00/04 A3032 RMK A01 T00000-44  RH  073%=      5-min Rain = 0
KMES 081345Z 02006KT 00/04 A3032 RMK A01 T00000-44  RH  072%=      5-min Rain = 0
KMES 081350Z 02006KT 00/05 A3032 RMK A01 T00000-48  RH  070%=      5-min Rain = 0
KMES 081355Z 03007KT 00/05 A3033 RMK A01 T00000-50  RH  069%=      5-min Rain = 0
KMES 081400Z 03005KT 00/M05 A3033 RMK A01 T00011052  RH  068%=      5-min Rain = 0
KMES 081405Z 04005KT 00/M05 A3033 RMK A01 T00011053  RH  068%=      5-min Rain = 0
KMES 081410Z 05003KT 00/05 A3033 RMK A01 T00000-52  RH  068%=      5-min Rain = 0
KMES 081415Z 04003KT 00/05 A3033 RMK A01 T00000-53  RH  068%=      5-min Rain = 0
KMES 081420Z 02006KT 00/M06 A3033 RMK A01 T00011056  RH  066%=      5-min Rain = 0
KMES 081425Z 02006KT 00/M06 A3034 RMK A01 T00011057  RH  065%=      5-min Rain = 0
KMES 081430Z 02006KT 00/M06 A3034 RMK A01 T00011057  RH  065%=      5-min Rain = 0
KMES 081435Z 02005KT 00/M06 A3034 RMK A01 T00011056  RH  066%=      5-min Rain = 0
KMES 081440Z 01006KT 00/M06 A3034 RMK A01 T00011057  RH  065%=      5-min Rain = 0
KMES 081445Z 02006KT 00/M06 A3034 RMK A01 T00021058  RH  064%=      5-min Rain = 0
KMES 081450Z 02006KT 00/M06 A3034 RMK A01 T00021058  RH  064%=      5-min Rain = 0
KMES 081455Z 02006KT 00/M06 A3034 RMK A01 T00021057  RH  065%=      5-min Rain = 0
KMES 081500Z 01005KT 00/M06 A3034 RMK A01 T00021055  RH  066%=      5-min Rain = 0
KMES 081505Z 01006KT 00/M06 A3034 RMK A01 T00021055  RH  066%=      5-min Rain = 0
KMES 081510Z 01008KT 00/M06 A3034 RMK A01 T00021057  RH  065%=      5-min Rain = 0
KMES 081515Z 01008KT 00/M06 A3035 RMK A01 T00021057  RH  064%=      5-min Rain = 0
KMES 081520Z 01008KT 00/M06 A3035 RMK A01 T00021057  RH  065%=      5-min Rain = 0
KMES 081525Z 01008KT 00/M06 A3035 RMK A01 T00031059  RH  064%=      5-min Rain = 0
KMES 081530Z 01006KT 00/M06 A3035 RMK A01 T00031055  RH  065%=      5-min Rain = 0
KMES 081535Z 00008KT 00/M06 A3035 RMK A01 T00031057  RH  064%=      5-min Rain = 0
KMES 081540Z 00008KT 00/M06 A3035 RMK A01 T00031058  RH  064%=      5-min Rain = 0
KMES 081545Z 00007KT 00/M06 A3035 RMK A01 T00041059  RH  063%=      5-min Rain = 0
KMES 081550Z 01008KT 00/M06 A3035 RMK A01 T00041059  RH  063%=      5-min Rain = 0
KMES 081555Z 00007KT 00/M06 A3035 RMK A01 T00041058  RH  063%=      5-min Rain = 0
KMES 081600Z 00005KT 01/M06 A3036 RMK A01 T00051055  RH  064%=      5-min Rain = 0
KMES 081605Z 00007KT 01/M06 A3036 RMK A01 T00051057  RH  063%=      5-min Rain = 0
KMES 081610Z 01008KT 01/M06 A3036 RMK A01 T00061058  RH  063%=      5-min Rain = 0
KMES 081615Z 00008KT 01/M06 A3036 RMK A01 T00061059  RH  062%=      5-min Rain = 0
KMES 081620Z 00007KT 01/M06 A3036 RMK A01 T00061059  RH  062%=      5-min Rain = 0
KMES 081625Z 36007KT 01/M06 A3036 RMK A01 T00071058  RH  062%=      5-min Rain = 0
KMES 081630Z 01007KT 01/M06 A3036 RMK A01 T00071059  RH  061%=      5-min Rain = 0
KMES 081635Z 00007KT 01/M06 A3036 RMK A01 T00081057  RH  062%=      5-min Rain = 0
KMES 081640Z 01007KT 01/M06 A3036 RMK A01 T00081058  RH  061%=      5-min Rain = 0
KMES 081645Z 00007KT 01/M06 A3036 RMK A01 T00091057  RH  061%=      5-min Rain = 0
KMES 081650Z 35008KT 01/M06 A3036 RMK A01 T00091059  RH  060%=      5-min Rain = 0
KMES 081655Z 36007KT 01/M06 A3036 RMK A01 T00101057  RH  061%=      5-min Rain = 0.01
KMES 081700Z 00008KT 01/M06 A3036 RMK A01 T00101060  RH  059%=      5-min Rain = 0
KMES 081705Z 35008KT 01/M06 A3036 RMK A01 T00111058  RH  060%=      5-min Rain = 0.01
KMES 081710Z 35007G12KT 01/M06 A3036 RMK A01 T00111058  RH  060%=      5-min Rain = 0
KMES 081715Z 35008KT 01/M06 A3036 RMK A01 T00111059  RH  060%=      5-min Rain = 0
KMES 081720Z 36007KT 01/M06 A3036 RMK A01 T00121057  RH  060%=      5-min Rain = 0
KMES 081725Z 35007KT 01/M06 A3036 RMK A01 T00131058  RH  060%=      5-min Rain = 0
KMES 081730Z 35007KT 01/M06 A3036 RMK A01 T00131057  RH  060%=      5-min Rain = 0
KMES 081735Z 35008KT 01/M06 A3035 RMK A01 T00131060  RH  058%=      5-min Rain = 0
KMES 081740Z 36006KT 01/M06 A3035 RMK A01 T00141060  RH  058%=      5-min Rain = 0
KMES 081745Z 01006KT 02/M06 A3035 RMK A01 T00151060  RH  057%=      5-min Rain = 0
KMES 081750Z 35006KT 02/M06 A3035 RMK A01 T00151063  RH  056%=      5-min Rain = 0
KMES 081755Z 35007KT 02/M06 A3035 RMK A01 T00161062  RH  056%=      5-min Rain = 0
KMES 081800Z 34007KT 02/M06 A3035 RMK A01 T00161061  RH  057%=      5-min Rain = 0
KMES 081805Z 35007KT 02/M06 A3034 RMK A01 T00161062  RH  056%=      5-min Rain = 0
KMES 081810Z 35007KT 02/M07 A3034 RMK A01 T00171065  RH  055%=      5-min Rain = 0
KMES 081815Z 00006KT 02/M06 A3034 RMK A01 T00171064  RH  055%=      5-min Rain = 0
KMES 081820Z 34006KT 02/M06 A3033 RMK A01 T00181061  RH  056%=      5-min Rain = 0
KMES 081825Z 36007KT 02/M06 A3033 RMK A01 T00201060  RH  056%=      5-min Rain = 0
KMES 081830Z 36006KT 02/M06 A3033 RMK A01 T00201060  RH  055%=      5-min Rain = 0
KMES 081835Z 33008KT 02/M06 A3032 RMK A01 T00211062  RH  055%=      5-min Rain = 0
KMES 081840Z 34006KT 02/M06 A3032 RMK A01 T00211061  RH  055%=      5-min Rain = 0
KMES 081845Z 35008KT 02/M06 A3032 RMK A01 T00211063  RH  054%=      5-min Rain = 0
KMES 081850Z 34006KT 02/M06 A3032 RMK A01 T00231061  RH  054%=      5-min Rain = 0
KMES 081855Z 33006KT 02/M06 A3031 RMK A01 T00241063  RH  053%=      5-min Rain = 0
KMES 081900Z 34006KT 03/M06 A3031 RMK A01 T00261061  RH  053%=      5-min Rain = 0
KMES 081905Z 35007KT 03/M06 A3031 RMK A01 T00281062  RH  052%=      5-min Rain = 0
KMES 081910Z 33006KT 03/M07 A303 RMK A01 T00291066  RH  050%=      5-min Rain = 0
KMES 081915Z 34007KT 03/M07 A303 RMK A01 T00311068  RH  048%=      5-min Rain = 0
KMES 081920Z 35006KT 03/M07 A303 RMK A01 T00331068  RH  047%=      5-min Rain = 0
KMES 081925Z 33006KT 04/M07 A303 RMK A01 T00351069  RH  046%=      5-min Rain = 0
KMES 081930Z 34005KT 04/M07 A303 RMK A01 T00361070  RH  046%=      5-min Rain = 0
KMES 081935Z 34007KT 04/M08 A303 RMK A01 T00361076  RH  044%=      5-min Rain = 0
KMES 081940Z 34007KT 04/M07 A3029 RMK A01 T00381074  RH  044%=      5-min Rain = 0
KMES 081945Z 34007KT 04/M08 A3029 RMK A01 T00391077  RH  042%=      5-min Rain = 0
KMES 081950Z 34005KT 04/M07 A3029 RMK A01 T00401074  RH  043%=      5-min Rain = 0
KMES 081955Z 34007KT 04/M08 A3029 RMK A01 T00411077  RH  042%=      5-min Rain = 0
KMES 082000Z 34005KT 04/M08 A3028 RMK A01 T00421081  RH  040%=      5-min Rain = 0
KMES 082005Z 34005KT 04/M08 A3028 RMK A01 T00431078  RH  041%=      5-min Rain = 0
KMES 082010Z 34007KT 04/M08 A3028 RMK A01 T00441078  RH  041%=      5-min Rain = 0
KMES 082015Z 34007KT 05/M08 A3028 RMK A01 T00461084  RH  038%=      5-min Rain = 0
KMES 082020Z 36007KT 05/M09 A3028 RMK A01 T00461088  RH  037%=      5-min Rain = 0
KMES 082025Z 34006KT 05/M09 A3028 RMK A01 T00491087  RH  037%=      5-min Rain = 0
KMES 082030Z 34005KT 05/M09 A3027 RMK A01 T00481089  RH  036%=      5-min Rain = 0
KMES 082035Z 33004KT 05/M09 A3027 RMK A01 T00501090  RH  035%=      5-min Rain = 0
KMES 082040Z 34005KT 06/M08 A3027 RMK A01 T00561080  RH  037%=      5-min Rain = 0
KMES 082045Z 01007KT 06/M08 A3027 RMK A01 T00601082  RH  035%=      5-min Rain = 0
KMES 082050Z 01006KT 06/M09 A3027 RMK A01 T00601086  RH  034%=      5-min Rain = 0
KMES 082055Z 35004G10KT 06/M08 A3026 RMK A01 T00601082  RH  035%=      5-min Rain = 0
KMES 082100Z 32008KT 06/M08 A3026 RMK A01 T00631077  RH  036%=      5-min Rain = 0
KMES 082105Z 34007KT 06/M08 A3026 RMK A01 T00621078  RH  036%=      5-min Rain = 0
KMES 082110Z 33008KT 06/M08 A3026 RMK A01 T00621079  RH  036%=      5-min Rain = 0
KMES 082115Z 34006G12KT 06/M08 A3026 RMK A01 T00601079  RH  036%=      5-min Rain = 0
KMES 082120Z 33009KT 06/M08 A3025 RMK A01 T00621077  RH  036%=      5-min Rain = 0
KMES 082125Z 32005KT 06/M08 A3025 RMK A01 T00611081  RH  035%=      5-min Rain = 0
KMES 082130Z 34007KT 06/M08 A3025 RMK A01 T00611080  RH  035%=      5-min Rain = 0
KMES 082135Z 32006KT 06/M08 A3025 RMK A01 T00621075  RH  037%=      5-min Rain = 0
KMES 082140Z 33007KT 06/M08 A3025 RMK A01 T00631082  RH  035%=      5-min Rain = 0
KMES 082145Z 33005KT 06/M08 A3025 RMK A01 T00631076  RH  036%=      5-min Rain = 0
KMES 082150Z 34006KT 06/M07 A3025 RMK A01 T00631073  RH  037%=      5-min Rain = 0
KMES 082155Z 34006KT 06/M07 A3025 RMK A01 T00631068  RH  039%=      5-min Rain = 0
KMES 082200Z 33007KT 06/M07 A3025 RMK A01 T00601065  RH  040%=      5-min Rain = 0
KMES 082205Z 32007KT 06/M06 A3025 RMK A01 T00591063  RH  041%=      5-min Rain = 0
KMES 082210Z 32008KT 06/M06 A3025 RMK A01 T00581063  RH  041%=      5-min Rain = 0
KMES 082215Z 32007KT 06/M06 A3025 RMK A01 T00581060  RH  042%=      5-min Rain = 0
KMES 082220Z 31007KT 06/M06 A3025 RMK A01 T00571061  RH  043%=      5-min Rain = 0
KMES 082225Z 30006KT 06/M06 A3025 RMK A01 T00571058  RH  044%=      5-min Rain = 0
KMES 082230Z 30006KT 06/M06 A3025 RMK A01 T00591058  RH  043%=      5-min Rain = 0
KMES 082235Z 31005KT 06/M06 A3025 RMK A01 T00611059  RH  042%=      5-min Rain = 0
KMES 082240Z 33006KT 06/M06 A3025 RMK A01 T00621060  RH  041%=      5-min Rain = 0
KMES 082245Z 35006KT 06/M06 A3025 RMK A01 T00631057  RH  042%=      5-min Rain = 0
KMES 082250Z 35006KT 06/M06 A3025 RMK A01 T00621061  RH  041%=      5-min Rain = 0
KMES 082255Z 34005KT 06/M06 A3025 RMK A01 T00621057  RH  043%=      5-min Rain = 0
KMES 082300Z 33005KT 06/M06 A3025 RMK A01 T00601056  RH  043%=      5-min Rain = 0
KMES 082305Z 34005KT 06/M05 A3025 RMK A01 T00581054  RH  045%=      5-min Rain = 0
KMES 082310Z 33005KT 05/M06 A3025 RMK A01 T00541055  RH  045%=      5-min Rain = 0
KMES 082315Z 35005KT 05/M05 A3025 RMK A01 T00521053  RH  047%=      5-min Rain = 0
KMES 082320Z 01005KT 05/M06 A3025 RMK A01 T00491060  RH  045%=      5-min Rain = 0
KMES 082325Z 01005KT 05/M07 A3026 RMK A01 T00471068  RH  043%=      5-min Rain = 0
KMES 082330Z 01004KT 04/M07 A3026 RMK A01 T00431069  RH  044%=      5-min Rain = 0
KMES 082335Z 01004KT 04/M07 A3026 RMK A01 T00371069  RH  046%=      5-min Rain = 0
KMES 082340Z 00004KT 03/M06 A3026 RMK A01 T00331064  RH  049%=      5-min Rain = 0
KMES 082345Z 36005KT 03/M06 A3026 RMK A01 T00261059  RH  053%=      5-min Rain = 0
KMES 082350Z 35004KT 02/M06 A3026 RMK A01 T00191058  RH  057%=      5-min Rain = 0
KMES 082355Z 34005KT 01/M06 A3027 RMK A01 T00111058  RH  060%=      5-min Rain = 0
KMES 090000Z 34005KT 01/M06 A3027 RMK A01 T00091059  RH  060%=      5-min Rain = 0
KMES 090005Z 35005KT 01/M06 A3027 RMK A01 T00071061  RH  060%=      5-min Rain = 0
KMES 090010Z 00004KT 00/M06 A3027 RMK A01 T00021062  RH  062%=      5-min Rain = 0
KMES 090015Z 00004KT 00/06 A3027 RMK A01 T00000-62  RH  063%=      5-min Rain = 0
KMES 090020Z 01004KT M00/M06 A3027 RMK A01 T10031062  RH  064%=      5-min Rain = 0
KMES 090025Z 01004KT M01/M06 A3027 RMK A01 T10061062  RH  066%=      5-min Rain = 0
KMES 090030Z 01005KT M01/M06 A3027 RMK A01 T10071064  RH  065%=      5-min Rain = 0
KMES 090035Z 01005KT M01/M07 A3028 RMK A01 T10071067  RH  064%=      5-min Rain = 0
KMES 090040Z 01005KT M01/M07 A3028 RMK A01 T10061070  RH  062%=      5-min Rain = 0
KMES 090045Z 01005KT M01/M07 A3028 RMK A01 T10071070  RH  062%=      5-min Rain = 0
KMES 090050Z 00005KT M01/M07 A3028 RMK A01 T10101071  RH  063%=      5-min Rain = 0
KMES 090055Z 00005KT M01/M07 A3028 RMK A01 T10111073  RH  063%=      5-min Rain = 0
KMES 090100Z 00005KT M01/M07 A3028 RMK A01 T10111074  RH  062%=      5-min Rain = 0
KMES 090105Z 00005KT M01/M08 A3028 RMK A01 T10121075  RH  062%=      5-min Rain = 0
KMES 090110Z 00005KT M01/M08 A3028 RMK A01 T10121077  RH  061%=      5-min Rain = 0
KMES 090115Z 36005KT M01/M08 A3029 RMK A01 T10131078  RH  061%=      5-min Rain = 0
KMES 090120Z 36005KT M01/M08 A3029 RMK A01 T10141078  RH  062%=      5-min Rain = 0
KMES 090125Z 36005KT M02/M08 A3029 RMK A01 T10151079  RH  062%=      5-min Rain = 0
KMES 090130Z 35006KT M02/M08 A3029 RMK A01 T10151079  RH  062%=      5-min Rain = 0
KMES 090135Z 35006KT M02/M08 A3029 RMK A01 T10161080  RH  061%=      5-min Rain = 0
KMES 090140Z 36007KT M02/M08 A3029 RMK A01 T10161082  RH  061%=      5-min Rain = 0
KMES 090145Z 35006KT M02/M08 A3029 RMK A01 T10161082  RH  060%=      5-min Rain = 0
KMES 090150Z 35006KT M02/M08 A303 RMK A01 T10161083  RH  060%=      5-min Rain = 0
KMES 090155Z 35006KT M02/M09 A303 RMK A01 T10161085  RH  059%=      5-min Rain = 0
KMES 090200Z 35006KT M02/M09 A303 RMK A01 T10161085  RH  059%=      5-min Rain = 0
KMES 090205Z 35006KT M02/M09 A303 RMK A01 T10171085  RH  059%=      5-min Rain = 0
KMES 090210Z 35005KT M02/M08 A303 RMK A01 T10211083  RH  063%=      5-min Rain = 0
KMES 090215Z 34004KT M02/M08 A303 RMK A01 T10231082  RH  064%=      5-min Rain = 0
KMES 090220Z 34004KT M02/M08 A303 RMK A01 T10231084  RH  063%=      5-min Rain = 0
KMES 090225Z 34004KT M02/M08 A303 RMK A01 T10241084  RH  063%=      5-min Rain = 0
KMES 090230Z 35005KT M03/M08 A303 RMK A01 T10271084  RH  065%=      5-min Rain = 0
KMES 090235Z 35005KT M03/M08 A303 RMK A01 T10281083  RH  066%=      5-min Rain = 0
KMES 090240Z 35005KT M03/M08 A303 RMK A01 T10281083  RH  066%=      5-min Rain = 0
KMES 090245Z 35005KT M03/M08 A303 RMK A01 T10261083  RH  065%=      5-min Rain = 0
KMES 090250Z 35006KT M03/M08 A303 RMK A01 T10271084  RH  065%=      5-min Rain = 0
KMES 090255Z 35006KT M03/M09 A303 RMK A01 T10271085  RH  064%=      5-min Rain = 0
KMES 090300Z 35004KT M03/M09 A3031 RMK A01 T10271086  RH  063%=      5-min Rain = 0
KMES 090305Z 34003KT M03/M09 A3031 RMK A01 T10261088  RH  062%=      5-min Rain = 0
KMES 090310Z 34003KT M03/M09 A3031 RMK A01 T10261089  RH  062%=      5-min Rain = 0
KMES 090315Z 34003KT M03/M09 A303 RMK A01 T10261090  RH  061%=      5-min Rain = 0
KMES 090320Z 34004KT M03/M09 A303 RMK A01 T10271090  RH  061%=      5-min Rain = 0
KMES 090325Z 34005KT M03/M09 A3031 RMK A01 T10261091  RH  061%=      5-min Rain = 0
KMES 090330Z 34005KT M03/M09 A3031 RMK A01 T10251092  RH  060%=      5-min Rain = 0
KMES 090335Z 33004KT M03/M09 A3031 RMK A01 T10251092  RH  060%=      5-min Rain = 0
KMES 090340Z 32004KT M03/M09 A3031 RMK A01 T10261093  RH  060%=      5-min Rain = 0
KMES 090345Z 32004KT M03/M09 A3031 RMK A01 T10261093  RH  060%=      5-min Rain = 0
KMES 090350Z 32004KT M03/M09 A3031 RMK A01 T10281092  RH  061%=      5-min Rain = 0
KMES 090355Z 33004KT M03/M09 A3031 RMK A01 T10321091  RH  064%=      5-min Rain = 0
KMES 090400Z 34005KT M04/M09 A3031 RMK A01 T10381090  RH  067%=      5-min Rain = 0
KMES 090405Z 36006KT M04/M09 A3031 RMK A01 T10381088  RH  068%=      5-min Rain = 0
KMES 090410Z 36006KT M04/M09 A3031 RMK A01 T10381088  RH  068%=      5-min Rain = 0
KMES 090415Z 35006KT M04/M09 A3031 RMK A01 T10351088  RH  067%=      5-min Rain = 0
KMES 090420Z 34004KT M03/M09 A3031 RMK A01 T10311089  RH  064%=      5-min Rain = 0
KMES 090425Z 33004KT M03/M09 A3031 RMK A01 T10311089  RH  064%=      5-min Rain = 0
KMES 090430Z 33004KT M03/M09 A3031 RMK A01 T10321090  RH  064%=      5-min Rain = 0
KMES 090435Z 32004KT M03/M09 A3031 RMK A01 T10311092  RH  063%=      5-min Rain = 0
KMES 090440Z 32005KT M03/M09 A3031 RMK A01 T10281094  RH  060%=      5-min Rain = 0
KMES 090445Z 32005KT M03/M10 A3031 RMK A01 T10261097  RH  058%=      5-min Rain = 0
KMES 090450Z 32005KT M03/M10 A3031 RMK A01 T10261098  RH  058%=      5-min Rain = 0
KMES 090455Z 32005KT M03/M10 A3031 RMK A01 T10271097  RH  058%=      5-min Rain = 0
KMES 090500Z 32005KT M03/M10 A3032 RMK A01 T10281097  RH  059%=      5-min Rain = 0
KMES 090505Z 31005KT M03/M10 A3032 RMK A01 T10281096  RH  059%=      5-min Rain = 0
KMES 090510Z 32005KT M03/M10 A3032 RMK A01 T10291097  RH  059%=      5-min Rain = 0
KMES 090515Z 32005KT M03/M10 A3032 RMK A01 T10291097  RH  059%=      5-min Rain = 0
KMES 090520Z 32005KT M03/M10 A3033 RMK A01 T10301097  RH  059%=      5-min Rain = 0
KMES 090525Z 32005KT M03/M10 A3033 RMK A01 T10301096  RH  060%=      5-min Rain = 0
KMES 090530Z 32006KT M03/M10 A3033 RMK A01 T10301097  RH  060%=      5-min Rain = 0
KMES 090535Z 31006KT M03/M10 A3033 RMK A01 T10311096  RH  060%=      5-min Rain = 0
KMES 090540Z 31005KT M03/M10 A3033 RMK A01 T10321096  RH  061%=      5-min Rain = 0
KMES 090545Z 32004KT M03/M10 A3033 RMK A01 T10341095  RH  063%=      5-min Rain = 0
KMES 090550Z 31004KT M04/M10 A3033 RMK A01 T10351095  RH  063%=      5-min Rain = 0
KMES 090555Z 31004KT M03/M10 A3033 RMK A01 T10341095  RH  062%=      5-min Rain = 0

Page generated in 0.0142 seconds.